Aurora, CO (80042)

9:53 PM MST on December 22, 2014 (GMT -0700)
North Aurora / Fitzsimmons | Change Station
CLOSE
Current Station
Personal Weather Station
Location: Aurora, CO
Elevation: 5364 ft
Nearby Weather Stations

Elev 5364 ft 39.75 °N, 104.85 °W | Updated 0 second ago

Mostly Cloudy
Mostly Cloudy
26.6 °F
Feels Like 27 °F
N
0.0
Wind Variable Wind from North
Gusts 0.0 mph

Today
High -- | Low -- °F
--% Chance of Precip.
Yesterday
High -- | Low -- °F
Precip. -- in
7:17 AM 4:38 PM
New Moon, 2% visible
Pressure 29.89 in
Visibility 10.0 miles
Clouds Scattered Clouds 7000 ft
Mostly Cloudy 12000 ft
Windchill 27 °F
Dew Point 18 °F
Humidity 69%
Rainfall 0.00 in
Snow Depth Not available.
UV 0 out of 12
Pollen .10 out of 12
Air Quality Not available.
Flu Activity Not available.
METAR KBKF 230358Z 02007KT 10SM SCT070 BKN120 M04/M07 A2984 RMK AO2A SLP122 T10391074

More Conditions Fewer Conditions

Pressure 29.89 in
Visibility 10.0 miles
Clouds Scattered Clouds 7000 ft
Mostly Cloudy 12000 ft
Windchill 27 °F
Dew Point 18 °F
Humidity 69%
Rainfall 0.00 in
Snow Depth Not available.
UV 0 out of 12
Pollen .10 out of 12
Air Quality Not available.
Flu Activity Not available.
METAR KBKF 230358Z 02007KT 10SM SCT070 BKN120 M04/M07 A2984 RMK AO2A SLP122 T10391074

More Conditions Fewer Conditions

10-Day Weather Forecast

Almanac

Astronomy

Dec. 22, 2014 Rise Set
Actual Time
Civil Twilight
Nautical Twilight
Astronomical Twilight
Moon
Length of Visible Light
Length of Day
Tomorrow will be .
, % of the Moon is Illuminated

Today's Extremes

State Highs State Lows

Community

WunderPhotos

Upload Photos

1,779,778 photos uploaded!

WunderBlogs® & News

Nearby

Air Quality

  Air Quality AQ Index Pollutant
Not available.

Snow Depth

Station Depth Elevation

Earthquake Activity

City Distance Mag. Time & Date
Minimum magnitude displayed is 2.5.

Coastal Water Temperatures

Place Temperature

Nearby Weather Stations